Time;durP1;ratioP1;P1;durP2;ratioP2;P2;SDS_P1;SDS_P2;PMS_P1;PMS_P2;Temp;Humidity;BMP_temperature;BMP_pressure;BME280_temperature;BME280_humidity;BME280_pressure;Samples;Min_cycle;Max_cycle;Signal;HPM_P1;HPM_P2
2021/07/22 00:02:58;;;;;;;18.83;9.38;;;;;;;17.83;62.92;101067.44;10351033;28;20207;-73
2021/07/22 00:08:02;;;;;;;16.70;8.77;;;;;;;17.86;63.29;101070.69;10346239;28;20227;-73
2021/07/22 00:13:05;;;;;;;16.30;9.95;;;;;;;17.91;63.04;101062.06;10346296;28;20191;-73
2021/07/22 00:18:10;;;;;;;16.65;8.88;;;;;;;17.85;63.11;101068.09;10327760;28;20258;-73
2021/07/22 00:23:13;;;;;;;15.73;9.38;;;;;;;17.78;63.24;101059.72;10345643;28;20611;-73
2021/07/22 00:28:16;;;;;;;15.23;9.05;;;;;;;17.62;63.43;101060.41;10381087;23;20234;-74
2021/07/22 00:33:20;;;;;;;16.00;8.82;;;;;;;17.60;64.06;101064.28;10386142;28;20280;-74
2021/07/22 00:38:23;;;;;;;14.88;8.10;;;;;;;17.65;63.99;101060.09;10385857;28;20249;-74
2021/07/22 00:43:26;;;;;;;16.73;9.45;;;;;;;17.61;63.98;101050.56;10385967;28;20585;-75
2021/07/22 00:48:30;;;;;;;15.65;9.20;;;;;;;17.66;63.70;101053.69;10385914;28;20214;-74
2021/07/22 00:53:35;;;;;;;17.17;9.82;;;;;;;17.63;63.95;101053.97;10384163;28;20672;-74
2021/07/22 00:58:38;;;;;;;16.00;9.25;;;;;;;17.64;63.98;101050.25;10385130;28;20257;-74
2021/07/22 01:03:44;;;;;;;14.82;9.02;;;;;;;17.64;63.65;101041.25;10383868;28;20219;-74
2021/07/22 01:08:47;;;;;;;15.35;9.65;;;;;;;17.66;64.08;101047.38;10384996;28;20230;-74
2021/07/22 01:14:13;;;;;;;18.45;9.60;;;;;;;17.65;64.08;101048.38;10383424;28;20205;-74
2021/07/22 01:19:19;;;;;;;16.10;8.85;;;;;;;17.60;64.20;101043.41;10383505;28;20242;-74
2021/07/22 01:24:23;;;;;;;15.45;9.25;;;;;;;17.63;64.37;101053.13;10384461;28;20211;-74
2021/07/22 01:29:35;;;;;;;16.35;8.73;;;;;;;17.61;64.59;101047.00;10388717;28;20317;-74
2021/07/22 01:34:41;;;;;;;16.73;9.40;;;;;;;17.55;64.69;101044.88;10391193;28;20230;-75
2021/07/22 01:39:48;;;;;;;17.88;8.40;;;;;;;17.52;65.15;101040.59;10390029;28;20328;-74
2021/07/22 01:44:51;;;;;;;17.38;9.93;;;;;;;17.56;65.29;101035.75;10389461;28;20218;-74
2021/07/22 01:49:54;;;;;;;13.43;8.75;;;;;;;17.51;65.62;101038.06;10389580;28;20300;-74
2021/07/22 01:54:59;;;;;;;17.55;9.63;;;;;;;17.47;65.87;101037.53;10389182;28;20285;-74
2021/07/22 02:00:05;;;;;;;15.90;10.02;;;;;;;17.41;65.89;101030.81;10389790;28;20198;-74
2021/07/22 02:05:19;;;;;;;17.20;9.32;;;;;;;17.36;66.14;101043.16;10389980;28;20309;-74
2021/07/22 02:10:24;;;;;;;16.73;9.20;;;;;;;17.30;66.40;101036.47;10389076;28;20203;-74
2021/07/22 02:15:27;;;;;;;20.55;9.40;;;;;;;17.25;66.38;101044.22;10389864;28;20294;-75
2021/07/22 02:20:32;;;;;;;14.32;8.63;;;;;;;17.13;67.14;101051.72;10388776;28;20289;-74
2021/07/22 02:25:37;;;;;;;20.67;8.93;;;;;;;16.89;67.84;101044.09;10389282;28;20265;-74
2021/07/22 02:30:40;;;;;;;16.83;9.13;;;;;;;16.86;68.16;101038.13;10388601;28;20209;-74
2021/07/22 02:35:44;;;;;;;15.32;9.20;;;;;;;16.85;68.21;101047.25;10387800;28;20679;-74
2021/07/22 02:40:55;;;;;;;16.67;9.85;;;;;;;16.84;68.38;101034.69;10389666;28;20190;-74
2021/07/22 02:46:05;;;;;;;16.33;9.80;;;;;;;16.98;67.72;101043.22;10387432;28;20222;-74
2021/07/22 02:51:11;;;;;;;16.80;10.00;;;;;;;16.99;67.44;101054.91;10388046;28;20211;-74
2021/07/22 02:56:15;;;;;;;17.52;9.18;;;;;;;17.03;67.77;101057.19;10388599;28;20715;-74
2021/07/22 03:01:20;;;;;;;15.75;9.32;;;;;;;17.03;67.65;101056.31;10387880;28;20237;-74
2021/07/22 03:06:24;;;;;;;16.98;9.80;;;;;;;17.06;67.69;101055.16;10388046;28;20293;-74
2021/07/22 03:11:36;;;;;;;17.77;9.35;;;;;;;17.05;67.83;101054.31;10370720;28;20186;-74
2021/07/22 03:16:39;;;;;;;17.10;9.82;;;;;;;16.92;67.93;101043.81;10387747;28;20637;-74
2021/07/22 03:21:54;;;;;;;17.70;9.73;;;;;;;16.73;68.67;101052.00;10388053;28;20214;-74
2021/07/22 03:27:19;;;;;;;17.60;9.50;;;;;;;16.69;68.64;101047.91;10379848;28;20309;-74
2021/07/22 03:32:23;;;;;;;15.88;9.38;;;;;;;16.73;68.49;101049.28;10370409;28;20253;-74
2021/07/22 03:37:27;;;;;;;18.65;9.77;;;;;;;16.64;69.19;101044.78;10370118;28;20226;-74
2021/07/22 03:42:31;;;;;;;16.27;9.80;;;;;;;16.57;69.06;101052.66;10389592;28;20253;-74
2021/07/22 03:47:37;;;;;;;15.13;8.70;;;;;;;16.51;69.45;101032.41;10392796;28;20214;-74
2021/07/22 03:52:40;;;;;;;18.00;9.52;;;;;;;16.58;69.15;101036.22;10369340;28;20596;-74
2021/07/22 03:57:45;;;;;;;19.05;10.50;;;;;;;16.68;68.66;101043.47;10369185;28;20222;-74
2021/07/22 04:02:59;;;;;;;20.52;10.52;;;;;;;16.82;68.37;101045.72;10369415;28;20608;-74
2021/07/22 04:08:04;;;;;;;17.35;10.32;;;;;;;16.91;68.13;101031.22;10368294;28;20594;-74
2021/07/22 04:13:15;;;;;;;19.85;9.43;;;;;;;16.91;67.78;101036.66;10368833;28;20253;-74
2021/07/22 04:18:34;;;;;;;15.25;9.13;;;;;;;16.96;67.80;101031.63;10368452;28;20682;-74
2021/07/22 04:24:00;;;;;;;19.40;9.77;;;;;;;17.07;67.67;101030.59;10380904;28;20711;-74
2021/07/22 04:29:15;;;;;;;18.63;10.23;;;;;;;17.07;67.22;101027.88;10368474;28;20234;-74
2021/07/22 04:34:18;;;;;;;16.92;10.07;;;;;;;17.09;66.74;101022.31;10367801;28;20199;-74
2021/07/22 04:39:24;;;;;;;20.75;10.55;;;;;;;17.04;66.76;101031.75;10385705;28;20285;-74
2021/07/22 04:44:54;;;;;;;18.27;10.38;;;;;;;17.06;66.84;101033.44;10379636;28;20229;-74
2021/07/22 04:50:22;;;;;;;19.02;10.70;;;;;;;17.10;67.34;101029.44;10367667;28;20261;-74
2021/07/22 04:55:29;;;;;;;17.23;9.57;;;;;;;17.04;67.53;101023.59;10366957;28;20215;-74
2021/07/22 05:00:35;;;;;;;19.85;9.93;;;;;;;17.07;68.17;101033.28;10366990;28;20202;-73
2021/07/22 05:05:38;;;;;;;17.65;10.32;;;;;;;17.25;67.95;101033.34;10373565;28;20219;-73
2021/07/22 05:11:02;;;;;;;23.00;10.05;;;;;;;17.54;67.71;101040.47;10374690;28;20605;-74
2021/07/22 05:16:16;;;;;;;17.90;10.77;;;;;;;17.55;67.21;101032.19;10374372;28;20249;-73
2021/07/22 05:21:35;;;;;;;15.43;9.13;;;;;;;17.75;67.37;101034.75;10374418;28;20199;-73
2021/07/22 05:26:42;;;;;;;21.55;12.02;;;;;;;17.91;66.94;101029.47;10391030;28;20218;-73
2021/07/22 05:31:53;;;;;;;21.15;11.25;;;;;;;17.88;66.68;101033.34;10373576;28;20294;-73
2021/07/22 05:37:12;;;;;;;17.67;10.18;;;;;;;17.95;67.33;101035.41;10373018;28;20222;-73
2021/07/22 05:42:23;;;;;;;21.17;11.07;;;;;;;18.12;65.59;101042.72;10391359;28;20195;-73
2021/07/22 05:47:27;;;;;;;20.23;11.20;;;;;;;18.30;64.76;101035.38;10390666;28;20298;-73
2021/07/22 05:52:31;;;;;;;20.15;11.07;;;;;;;18.50;64.59;101029.72;10390970;28;20195;-73
2021/07/22 05:57:36;;;;;;;23.48;11.80;;;;;;;18.71;63.02;101035.66;10390470;28;20219;-73
2021/07/22 06:02:40;;;;;;;20.38;11.80;;;;;;;18.90;62.22;101042.75;10390907;28;20190;-73
2021/07/22 06:07:45;;;;;;;18.60;10.55;;;;;;;19.01;62.15;101045.19;10372326;28;20222;-73
2021/07/22 06:12:48;;;;;;;15.18;8.93;;;;;;;19.15;63.15;101053.75;10389885;28;20191;-73
2021/07/22 06:17:53;;;;;;;16.08;10.65;;;;;;;19.32;62.24;101041.88;10390376;28;20334;-74
2021/07/22 06:22:55;;;;;;;19.27;11.57;;;;;;;19.59;61.62;101059.00;10391696;28;20258;-73
2021/07/22 06:27:58;;;;;;;20.33;11.43;;;;;;;19.73;60.83;101052.03;10469845;23;20224;-74
2021/07/22 06:33:03;;;;;;;22.98;11.52;;;;;;;19.79;60.27;101054.09;10432755;28;20678;-74
2021/07/22 06:38:05;;;;;;;18.85;11.82;;;;;;;19.76;59.76;101051.72;10431422;28;20264;-72
2021/07/22 06:43:09;;;;;;;22.02;11.48;;;;;;;19.83;59.65;101050.88;10413636;28;20289;-72
2021/07/22 06:48:14;;;;;;;23.58;11.82;;;;;;;19.59;60.41;101053.56;10431245;28;20221;-72
2021/07/22 06:53:17;;;;;;;17.27;11.18;;;;;;;19.48;60.36;101062.88;10432183;28;20194;-73
2021/07/22 06:58:20;;;;;;;23.33;13.20;;;;;;;19.34;60.77;101050.75;10432044;28;20289;-73
2021/07/22 07:03:24;;;;;;;21.42;12.35;;;;;;;19.28;61.34;101056.84;10430859;28;20202;-73
2021/07/22 07:08:28;;;;;;;20.15;11.15;;;;;;;19.38;61.51;101056.69;10430369;28;20215;-73
2021/07/22 07:13:31;;;;;;;19.83;11.20;;;;;;;19.43;61.41;101063.34;10430720;28;20189;-73
2021/07/22 07:18:35;;;;;;;22.20;12.07;;;;;;;19.47;61.75;101066.59;10429984;28;20240;-73
2021/07/22 07:23:38;;;;;;;20.73;11.10;;;;;;;19.65;61.18;101063.78;10429327;28;20675;-73
2021/07/22 07:28:42;;;;;;;20.15;11.02;;;;;;;19.82;60.92;101054.59;10429459;28;20600;-73
2021/07/22 07:33:47;;;;;;;22.33;11.57;;;;;;;19.90;60.77;101061.94;10429796;28;20189;-73
2021/07/22 07:38:50;;;;;;;14.23;8.98;;;;;;;19.70;60.82;101058.69;10429277;28;20206;-73
2021/07/22 07:43:53;;;;;;;19.23;10.93;;;;;;;19.80;61.29;101063.97;10429607;28;20225;-73
2021/07/22 07:48:57;;;;;;;19.13;10.20;;;;;;;19.86;60.92;101063.31;10429598;28;20202;-73
2021/07/22 07:54:00;;;;;;;21.08;11.82;;;;;;;19.85;60.99;101070.63;10429244;28;20270;-72
2021/07/22 07:59:03;;;;;;;21.38;12.38;;;;;;;19.78;61.39;101068.75;10429131;28;20210;-73
2021/07/22 08:04:10;;;;;;;19.73;11.38;;;;;;;19.78;61.58;101071.47;10429138;28;20257;-72
2021/07/22 08:09:13;;;;;;;20.40;12.27;;;;;;;19.85;61.90;101075.22;10428540;28;20713;-73
2021/07/22 08:14:16;;;;;;;19.83;12.00;;;;;;;19.90;61.75;101070.13;10428327;28;20269;-73
2021/07/22 08:19:20;;;;;;;21.80;13.25;;;;;;;19.79;61.66;101082.19;10428327;28;20217;-73
2021/07/22 08:24:23;;;;;;;24.52;13.13;;;;;;;19.89;60.86;101073.88;10427966;28;20217;-73
2021/07/22 08:29:26;;;;;;;24.15;12.65;;;;;;;19.88;61.51;101075.75;10428112;28;20220;-73
2021/07/22 08:34:30;;;;;;;24.70;12.75;;;;;;;20.44;60.70;101066.91;10428077;28;20186;-73
2021/07/22 08:39:37;;;;;;;20.45;12.32;;;;;;;21.01;59.45;101061.31;10435099;28;20597;-73
2021/07/22 08:44:42;;;;;;;21.13;12.75;;;;;;;21.49;57.25;101066.72;10435014;28;20297;-73
2021/07/22 08:49:47;;;;;;;23.42;13.10;;;;;;;21.60;57.01;101061.69;10435349;28;20194;-73
2021/07/22 08:54:50;;;;;;;23.10;13.05;;;;;;;21.67;56.49;101059.09;10434546;28;20186;-73
2021/07/22 08:59:52;;;;;;;23.83;13.35;;;;;;;21.55;56.70;101074.19;10434909;28;20666;-73
2021/07/22 09:04:57;;;;;;;24.38;13.77;;;;;;;21.47;56.63;101063.31;10434389;28;20210;-72
2021/07/22 09:10:14;;;;;;;23.92;13.30;;;;;;;21.50;55.95;101068.41;10416604;28;20190;-74
2021/07/22 09:15:24;;;;;;;22.67;12.85;;;;;;;21.82;55.87;101072.88;10433772;28;20685;-73
2021/07/22 09:20:44;;;;;;;22.83;13.85;;;;;;;22.46;53.19;101065.19;10434262;28;20186;-73
2021/07/22 09:25:48;;;;;;;24.58;13.55;;;;;;;22.14;53.13;101065.44;10433569;28;20241;-73
2021/07/22 09:30:56;;;;;;;22.15;13.90;;;;;;;22.41;53.12;101070.31;10433990;28;20190;-73
2021/07/22 09:36:00;;;;;;;24.73;13.30;;;;;;;22.71;50.78;101053.97;10433516;28;20216;-73
2021/07/22 09:41:03;;;;;;;19.88;12.15;;;;;;;23.43;50.55;101058.75;10415816;28;20577;-74
2021/07/22 09:46:06;;;;;;;25.13;13.43;;;;;;;24.08;49.14;101056.91;10432992;28;20226;-74
2021/07/22 09:51:33;;;;;;;22.92;14.07;;;;;;;23.79;48.51;101046.91;10433005;28;20186;-73
2021/07/22 09:56:36;;;;;;;22.05;13.73;;;;;;;23.50;49.12;101056.06;10433466;28;20213;-73
2021/07/22 10:01:45;;;;;;;22.17;13.38;;;;;;;24.19;47.45;101047.25;10433299;28;20277;-73
2021/07/22 10:06:50;;;;;;;21.73;13.23;;;;;;;24.52;46.64;101042.09;10433990;28;20260;-73
2021/07/22 10:11:54;;;;;;;20.70;12.63;;;;;;;23.98;47.15;101042.66;10433709;28;20629;-73
2021/07/22 10:17:00;;;;;;;21.17;12.77;;;;;;;24.46;46.83;101038.22;10414652;28;20226;-73
2021/07/22 10:22:06;;;;;;;21.83;12.73;;;;;;;24.60;46.30;101028.19;10432909;28;20562;-74
2021/07/22 10:27:09;;;;;;;24.02;13.40;;;;;;;25.95;43.37;101034.03;10432685;28;20233;-73
2021/07/22 10:32:13;;;;;;;20.48;12.73;;;;;;;25.91;43.86;101022.56;10432296;28;20208;-73
2021/07/22 10:37:18;;;;;;;18.10;12.00;;;;;;;25.89;42.80;101015.56;10431588;28;20225;-73
2021/07/22 10:42:42;;;;;;;20.00;11.82;;;;;;;25.89;43.37;101021.06;10432017;28;20217;-73
2021/07/22 10:48:01;;;;;;;19.83;11.98;;;;;;;26.66;41.73;101014.06;10431502;28;20227;-73
2021/07/22 10:53:05;;;;;;;20.58;12.50;;;;;;;25.20;42.80;101009.25;10432564;28;20190;-74
2021/07/22 10:58:47;;;;;;;21.38;12.18;;;;;;;24.58;44.36;100989.09;10430827;28;20588;-73
2021/07/22 11:03:56;;;;;;;15.63;11.18;;;;;;;25.81;42.11;100986.38;10431782;28;20189;-74
2021/07/22 11:09:10;;;;;;;20.35;11.45;;;;;;;26.66;40.39;100976.34;10431616;28;20599;-74
2021/07/22 11:14:33;;;;;;;20.13;13.23;;;;;;;26.41;41.12;100981.72;10413342;28;20202;-74
2021/07/22 11:19:36;;;;;;;16.95;10.98;;;;;;;27.29;40.12;100963.75;10430950;28;20210;-74
2021/07/22 11:24:41;;;;;;;18.98;11.98;;;;;;;28.41;39.41;100967.56;10430235;28;20193;-74
2021/07/22 11:29:44;;;;;;;17.52;10.60;;;;;;;28.14;39.47;100958.72;10430473;28;20229;-74
2021/07/22 11:34:47;;;;;;;20.95;12.23;;;;;;;29.48;37.29;100952.41;10429925;28;20566;-74
2021/07/22 11:39:51;;;;;;;19.75;11.85;;;;;;;29.20;37.71;100956.66;10430454;28;20190;-73
2021/07/22 11:45:02;;;;;;;16.83;11.07;;;;;;;27.92;39.88;100962.91;10429348;28;20206;-74
2021/07/22 11:50:06;;;;;;;15.60;10.93;;;;;;;27.17;40.92;100956.19;10429545;28;20183;-73
2021/07/22 11:55:12;;;;;;;15.05;10.85;;;;;;;26.47;43.13;100964.31;10428998;28;20198;-75
2021/07/22 12:00:16;;;;;;;17.52;11.70;;;;;;;25.95;43.73;100959.72;10433855;28;20565;-74
2021/07/22 12:05:23;;;;;;;17.48;11.98;;;;;;;26.05;42.88;100954.59;10470177;28;20229;-74
2021/07/22 12:10:28;;;;;;;17.83;12.93;;;;;;;26.32;43.04;100949.94;10470604;28;20554;-73
2021/07/22 12:15:31;;;;;;;16.95;11.80;;;;;;;28.57;39.37;100935.75;10452420;28;20304;-73
2021/07/22 12:20:35;;;;;;;19.42;13.43;;;;;;;29.56;34.87;100924.38;10470326;28;20181;-74
2021/07/22 12:25:55;;;;;;;17.38;12.15;;;;;;;30.29;35.94;100922.31;10490233;23;20259;-77
2021/07/22 12:31:20;;;;;;;17.02;13.40;;;;;;;30.98;32.80;100901.03;10430219;28;20197;-76
2021/07/22 12:36:23;;;;;;;16.10;11.57;;;;;;;29.46;36.06;100910.31;10430127;28;20285;-77
2021/07/22 12:41:27;;;;;;;17.40;12.40;;;;;;;27.72;39.23;100900.44;10430501;28;20194;-76
2021/07/22 12:46:32;;;;;;;16.98;12.85;;;;;;;26.67;40.31;100903.63;10413321;28;20607;-75
2021/07/22 12:51:35;;;;;;;18.88;12.40;;;;;;;26.42;42.34;100900.78;10429936;28;20572;-75
2021/07/22 12:56:44;;;;;;;19.05;12.50;;;;;;;27.76;39.16;100896.19;10428420;28;20218;-75
2021/07/22 13:01:56;;;;;;;17.48;11.30;;;;;;;27.30;39.61;100894.59;10430596;28;20623;-76
2021/07/22 13:06:59;;;;;;;15.25;10.50;;;;;;;27.04;41.21;100884.63;10411283;28;20274;-76
2021/07/22 13:12:04;;;;;;;16.60;11.70;;;;;;;27.59;40.25;100884.88;10432044;28;20221;-75
2021/07/22 13:17:08;;;;;;;15.30;10.40;;;;;;;28.14;39.10;100884.16;10430681;28;20222;-76
2021/07/22 13:22:15;;;;;;;18.98;14.25;;;;;;;28.75;36.38;100879.63;10430299;28;20212;-77
2021/07/22 13:27:20;;;;;;;17.65;12.48;;;;;;;27.66;38.38;100881.22;10435881;28;20226;-76
2021/07/22 13:32:23;;;;;;;15.93;11.52;;;;;;;26.60;42.21;100880.75;10439293;28;20190;-76
2021/07/22 13:37:26;;;;;;;16.05;10.98;;;;;;;27.06;41.32;100881.63;10438720;28;20210;-76
2021/07/22 13:42:30;;;;;;;15.18;11.60;;;;;;;27.96;39.67;100868.41;10417922;28;20301;-75
2021/07/22 13:47:34;;;;;;;17.83;11.27;;;;;;;29.37;37.07;100866.38;10435604;28;20297;-76
2021/07/22 13:52:37;;;;;;;17.20;12.70;;;;;;;29.29;35.03;100860.34;10435142;28;20245;-76
2021/07/22 13:57:42;;;;;;;17.60;11.82;;;;;;;29.08;37.28;100861.75;10436122;28;20652;-74
2021/07/22 14:02:44;;;;;;;15.70;11.10;;;;;;;28.58;38.20;100853.69;10418939;28;20198;-76
2021/07/22 14:07:49;;;;;;;17.63;11.80;;;;;;;30.11;35.77;100851.25;10434640;28;20236;-75
2021/07/22 14:12:53;;;;;;;13.75;10.73;;;;;;;31.62;32.97;100844.44;10434165;28;20233;-75
2021/07/22 14:17:56;;;;;;;18.30;11.38;;;;;;;32.41;32.77;100844.22;10434495;28;20233;-76
2021/07/22 14:22:59;;;;;;;12.77;9.85;;;;;;;31.87;32.87;100844.88;10434139;28;20197;-75
2021/07/22 14:28:04;;;;;;;13.45;10.27;;;;;;;30.14;34.93;100835.03;10434505;28;20227;-75
2021/07/22 14:33:07;;;;;;;15.27;10.50;;;;;;;27.89;38.58;100841.91;10433525;28;20182;-75
2021/07/22 14:38:10;;;;;;;15.75;10.75;;;;;;;27.65;39.78;100829.88;10434913;28;20210;-75
2021/07/22 14:43:15;;;;;;;13.98;10.35;;;;;;;27.41;39.97;100821.38;10433841;28;20190;-75
2021/07/22 14:48:18;;;;;;;15.20;10.48;;;;;;;27.28;40.04;100827.78;10417948;28;20226;-75
2021/07/22 14:53:34;;;;;;;17.85;11.05;;;;;;;27.21;39.94;100817.88;10420538;28;20186;-75
2021/07/22 14:58:38;;;;;;;16.23;10.18;;;;;;;26.85;40.85;100819.41;10432182;28;20698;-74
2021/07/22 15:03:41;;;;;;;14.25;9.85;;;;;;;27.63;39.92;100818.19;10433888;28;20188;-74
2021/07/22 15:08:44;;;;;;;14.38;10.20;;;;;;;29.00;37.60;100820.56;10433607;28;20229;-74
2021/07/22 15:13:49;;;;;;;11.98;9.60;;;;;;;30.41;36.02;100818.66;10416137;28;20205;-75
2021/07/22 15:18:52;;;;;;;13.77;9.43;;;;;;;31.36;33.79;100816.28;10432803;28;20214;-75
2021/07/22 15:23:55;;;;;;;14.68;9.20;;;;;;;31.09;33.69;100808.59;10419256;28;20194;-76
2021/07/22 15:28:59;;;;;;;16.50;9.25;;;;;;;31.69;33.49;100814.63;10433875;28;20602;-74
2021/07/22 15:34:02;;;;;;;12.90;9.23;;;;;;;31.48;33.26;100803.16;10432962;28;20200;-74
2021/07/22 15:39:19;;;;;;;13.18;9.82;;;;;;;30.81;33.10;100794.78;10433534;28;20209;-75
2021/07/22 15:44:24;;;;;;;13.20;8.98;;;;;;;31.49;33.22;100790.97;10431323;28;20189;-75
2021/07/22 15:49:27;;;;;;;16.40;9.20;;;;;;;31.26;32.42;100788.38;10430563;28;20678;-74
2021/07/22 15:54:29;;;;;;;14.13;9.07;;;;;;;30.95;32.44;100790.59;10431398;28;20200;-75
2021/07/22 15:59:34;;;;;;;14.65;9.00;;;;;;;30.74;33.81;100781.06;10432870;28;20670;-74
2021/07/22 16:04:41;;;;;;;13.18;10.02;;;;;;;30.15;33.27;100778.53;10414178;28;20202;-74
2021/07/22 16:09:44;;;;;;;14.27;9.07;;;;;;;28.82;35.37;100788.28;10431520;28;20221;-75
2021/07/22 16:14:48;;;;;;;14.32;9.65;;;;;;;28.27;37.15;100779.03;10414303;28;20218;-75
2021/07/22 16:19:51;;;;;;;13.00;9.75;;;;;;;28.64;36.76;100770.72;10431751;28;20202;-75
2021/07/22 16:24:54;;;;;;;14.32;8.90;;;;;;;29.08;36.85;100774.09;10430445;28;20197;-75
2021/07/22 16:29:59;;;;;;;13.00;9.68;;;;;;;29.73;34.16;100759.34;10429651;28;20228;-74
2021/07/22 16:35:02;;;;;;;13.10;10.02;;;;;;;28.67;36.61;100763.88;10432279;28;20170;-76
2021/07/22 16:40:07;;;;;;;13.10;9.07;;;;;;;27.75;38.14;100758.41;10429602;28;20580;-74
2021/07/22 16:45:12;;;;;;;15.55;9.10;;;;;;;28.74;36.68;100752.69;10429241;28;20651;-76
2021/07/22 16:50:15;;;;;;;10.10;8.40;;;;;;;30.58;33.75;100738.38;10428996;28;20213;-75
2021/07/22 16:55:17;;;;;;;10.85;8.35;;;;;;;32.60;30.74;100751.00;10429867;28;20193;-76
2021/07/22 17:00:22;;;;;;;11.00;8.18;;;;;;;34.18;27.98;100739.38;10437903;28;20569;-75
2021/07/22 17:05:25;;;;;;;12.23;7.70;;;;;;;34.77;28.24;100729.72;10419937;28;20218;-76
2021/07/22 17:10:28;;;;;;;10.80;8.02;;;;;;;33.97;28.54;100739.25;10418689;28;20237;-76
2021/07/22 17:15:32;;;;;;;10.20;7.53;;;;;;;33.87;28.88;100732.78;10439809;28;20213;-76
2021/07/22 17:20:35;;;;;;;8.25;7.40;;;;;;;34.55;27.34;100725.25;10436339;28;20188;-75
2021/07/22 17:25:38;;;;;;;9.20;6.95;;;;;;;34.24;28.06;100734.66;10437865;28;20229;-76
2021/07/22 17:30:44;;;;;;;11.50;7.40;;;;;;;33.66;28.27;100726.31;10437145;28;20819;-76
2021/07/22 17:35:47;;;;;;;9.00;6.93;;;;;;;33.64;28.35;100726.56;10419973;28;20231;-75
2021/07/22 17:40:50;;;;;;;8.57;5.90;;;;;;;33.48;28.52;100720.03;10436960;28;20560;-75
2021/07/22 17:45:54;;;;;;;9.90;7.15;;;;;;;33.31;29.00;100727.75;10436727;28;20217;-75
2021/07/22 17:50:58;;;;;;;9.57;6.40;;;;;;;32.43;29.51;100717.78;10433695;28;20736;-75
2021/07/22 17:56:01;;;;;;;11.13;6.80;;;;;;;31.33;30.89;100734.38;10432993;28;20236;-75
2021/07/22 18:01:05;;;;;;;7.03;5.82;;;;;;;29.18;33.55;100734.75;10433395;28;20581;-76
2021/07/22 18:06:09;;;;;;;9.70;6.50;;;;;;;26.89;37.68;100738.84;10433166;28;20264;-76
2021/07/22 18:11:11;;;;;;;8.90;5.85;;;;;;;25.45;40.23;100739.22;10432664;28;20225;-75
2021/07/22 18:16:16;;;;;;;10.95;6.65;;;;;;;24.72;41.73;100751.88;10432426;28;20237;-76
2021/07/22 18:21:19;;;;;;;11.18;6.45;;;;;;;24.00;43.43;100747.84;10432606;28;20186;-76
2021/07/22 18:26:22;;;;;;;10.15;6.68;;;;;;;23.49;44.62;100750.06;10457566;23;20225;-74
2021/07/22 18:31:32;;;;;;;10.35;6.75;;;;;;;23.13;45.46;100757.38;10473096;28;20209;-74
2021/07/22 18:36:48;;;;;;;9.65;5.82;;;;;;;22.77;46.86;100752.81;10472596;28;20213;-74
2021/07/22 18:41:51;;;;;;;9.75;6.28;;;;;;;22.45;46.70;100756.91;10472615;28;20284;-74
2021/07/22 18:46:55;;;;;;;8.82;6.00;;;;;;;22.11;47.13;100754.81;10471952;28;20216;-73
2021/07/22 18:51:59;;;;;;;9.23;6.10;;;;;;;21.94;47.88;100759.63;10472172;28;20197;-74
2021/07/22 18:57:02;;;;;;;9.73;6.35;;;;;;;21.75;48.25;100754.72;10471552;28;20220;-73
2021/07/22 19:02:06;;;;;;;10.70;6.32;;;;;;;21.55;48.59;100760.72;10472631;28;20678;-74
2021/07/22 19:07:09;;;;;;;7.43;5.55;;;;;;;21.37;48.87;100761.09;10471465;28;20206;-73
2021/07/22 19:12:12;;;;;;;9.45;5.90;;;;;;;21.17;49.37;100754.44;10471439;28;20189;-74
2021/07/22 19:17:17;;;;;;;8.23;5.50;;;;;;;21.00;49.20;100764.63;10471045;28;20232;-75
2021/07/22 19:22:21;;;;;;;8.52;6.13;;;;;;;20.75;49.66;100758.53;10470322;28;20197;-74
2021/07/22 19:27:25;;;;;;;8.90;5.82;;;;;;;20.56;50.34;100768.88;10470854;28;20224;-73
2021/07/22 19:32:29;;;;;;;7.50;5.50;;;;;;;20.46;50.45;100771.03;10471151;28;20291;-73
2021/07/22 19:37:32;;;;;;;7.85;5.72;;;;;;;20.33;50.93;100778.94;10470494;28;20223;-74
2021/07/22 19:42:35;;;;;;;6.80;5.22;;;;;;;20.20;51.15;100775.91;10470748;28;20189;-74
2021/07/22 19:47:39;;;;;;;9.60;6.00;;;;;;;20.15;51.38;100779.16;10470554;28;20216;-74
2021/07/22 19:52:43;;;;;;;8.93;5.40;;;;;;;20.00;51.41;100780.94;10470864;28;20182;-74
2021/07/22 19:57:46;;;;;;;8.75;5.60;;;;;;;19.87;52.20;100779.59;10470622;28;20229;-74
2021/07/22 20:02:51;;;;;;;9.23;5.43;;;;;;;19.72;52.20;100778.66;10470129;28;20192;-74
2021/07/22 20:07:54;;;;;;;10.73;5.13;;;;;;;19.66;52.43;100780.22;10469084;28;20213;-75
2021/07/22 20:12:56;;;;;;;7.97;5.72;;;;;;;19.54;52.79;100784.28;10468860;28;20191;-75
2021/07/22 20:18:01;;;;;;;9.02;5.10;;;;;;;19.45;52.85;100779.88;10468187;28;20206;-74
2021/07/22 20:23:04;;;;;;;10.18;5.95;;;;;;;19.32;53.01;100777.66;10468724;28;20189;-74
2021/07/22 20:28:07;;;;;;;7.13;5.25;;;;;;;19.22;53.39;100787.88;10467749;28;20228;-74
2021/07/22 20:33:11;;;;;;;7.32;5.22;;;;;;;19.13;53.42;100789.78;10467639;28;20726;-74
2021/07/22 20:38:14;;;;;;;10.10;5.95;;;;;;;18.99;54.09;100783.13;10467432;28;20624;-74
2021/07/22 20:43:17;;;;;;;9.15;5.93;;;;;;;18.95;54.33;100789.94;10467539;28;20194;-74
2021/07/22 20:48:26;;;;;;;8.07;5.20;;;;;;;18.85;54.31;100781.09;10467253;28;20220;-75
2021/07/22 20:53:29;;;;;;;8.07;5.35;;;;;;;18.77;54.38;100783.78;10467492;28;20200;-75
2021/07/22 20:58:32;;;;;;;9.80;6.20;;;;;;;18.63;55.01;100782.56;10467049;28;20208;-74
2021/07/22 21:03:36;;;;;;;11.35;5.55;;;;;;;18.51;55.32;100782.03;10467145;28;20658;-74
2021/07/22 21:08:39;;;;;;;7.18;5.80;;;;;;;18.26;56.06;100785.69;10467014;28;20279;-74
2021/07/22 21:13:42;;;;;;;9.90;5.95;;;;;;;18.05;56.33;100778.84;10467009;28;20190;-75
2021/07/22 21:18:46;;;;;;;9.45;5.90;;;;;;;17.98;56.28;100777.78;10466388;28;20210;-74
2021/07/22 21:23:53;;;;;;;12.00;5.85;;;;;;;17.74;57.03;100774.91;10467191;28;20193;-73
2021/07/22 21:28:56;;;;;;;8.77;5.75;;;;;;;17.66;56.78;100790.16;10466151;28;20225;-73
2021/07/22 21:34:01;;;;;;;12.00;6.05;;;;;;;17.59;57.18;100780.94;10466321;28;20190;-73
2021/07/22 21:39:04;;;;;;;8.30;5.05;;;;;;;17.51;57.23;100783.59;10466971;28;20204;-74
2021/07/22 21:44:07;;;;;;;11.00;6.03;;;;;;;17.47;57.25;100787.66;10468000;28;20208;-73
2021/07/22 21:49:11;;;;;;;7.75;5.55;;;;;;;17.34;57.25;100793.50;10473377;28;20575;-73
2021/07/22 21:54:14;;;;;;;8.07;4.97;;;;;;;17.30;57.32;100802.97;10473102;28;20204;-73
2021/07/22 21:59:17;;;;;;;7.40;4.82;;;;;;;17.31;57.22;100803.84;10472887;28;20226;-73
2021/07/22 22:04:21;;;;;;;6.32;4.40;;;;;;;17.16;57.35;100801.69;10471780;28;20185;-73
2021/07/22 22:09:24;;;;;;;8.57;5.00;;;;;;;16.99;57.70;100810.66;10471429;28;20217;-73
2021/07/22 22:14:27;;;;;;;8.00;4.97;;;;;;;16.98;57.96;100811.69;10471568;28;20204;-73
2021/07/22 22:19:32;;;;;;;6.95;4.68;;;;;;;16.92;57.98;100817.72;10471319;28;20217;-73
2021/07/22 22:24:34;;;;;;;8.73;5.43;;;;;;;16.84;58.18;100823.06;10471489;28;20564;-73
2021/07/22 22:29:39;;;;;;;9.95;5.15;;;;;;;16.70;58.88;100821.75;10470931;28;20217;-73
2021/07/22 22:34:44;;;;;;;7.32;4.65;;;;;;;16.56;58.98;100818.56;10470649;28;20185;-73
2021/07/22 22:39:46;;;;;;;13.48;5.30;;;;;;;16.55;59.65;100827.69;10471495;28;20212;-74
2021/07/22 22:44:49;;;;;;;9.45;4.90;;;;;;;16.46;59.32;100825.91;10471144;28;20200;-73
2021/07/22 22:49:54;;;;;;;9.43;4.93;;;;;;;16.41;59.47;100822.78;10470418;28;20402;-73
2021/07/22 22:54:57;;;;;;;8.23;4.95;;;;;;;16.35;59.84;100826.97;10469616;28;20189;-73
2021/07/22 23:00:00;;;;;;;6.85;4.70;;;;;;;16.27;59.94;100823.31;10470242;28;20212;-73
2021/07/22 23:05:05;;;;;;;7.28;5.07;;;;;;;16.18;60.45;100827.75;10469379;28;20193;-73